createdAt,value
2023-05-14T00:00:03.386Z,79.77
2023-05-14T00:01:03.381Z,80.44
2023-05-14T00:02:03.221Z,80.77
2023-05-14T00:03:03.224Z,80.44
2023-05-14T00:04:03.205Z,80.16
2023-05-14T00:05:03.388Z,79.87
2023-05-14T00:06:03.049Z,80.48
2023-05-14T00:07:04.232Z,80.10
2023-05-14T00:08:02.963Z,80.19
2023-05-14T00:09:02.910Z,79.96
2023-05-14T00:10:03.224Z,79.58
2023-05-14T00:11:02.820Z,79.20
2023-05-14T00:12:03.032Z,79.39
2023-05-14T00:13:02.857Z,79.20
2023-05-14T00:14:02.901Z,79.10
2023-05-14T00:15:02.668Z,79.52
2023-05-14T00:16:04.935Z,79.52
2023-05-14T00:17:02.590Z,79.24
2023-05-14T00:18:02.715Z,78.95
2023-05-14T00:19:02.556Z,79.05
2023-05-14T00:20:02.430Z,79.24
2023-05-14T00:21:03.570Z,79.05
2023-05-14T00:22:24.615Z,79.05
2023-05-14T00:23:02.345Z,79.29
2023-05-14T00:24:02.514Z,78.72
2023-05-14T00:25:02.248Z,79.00
2023-05-14T00:26:02.185Z,78.34
2023-05-14T00:27:03.371Z,78.24
2023-05-14T00:28:02.096Z,78.91
2023-05-14T00:29:03.161Z,79.10
2023-05-14T00:30:02.009Z,78.28
2023-05-14T00:31:01.999Z,78.91
2023-05-14T00:32:01.924Z,78.72
2023-05-14T00:33:02.213Z,78.81
2023-05-14T00:34:01.843Z,78.34
2023-05-14T00:35:04.022Z,78.91
2023-05-14T00:36:01.744Z,78.72
2023-05-14T00:37:01.692Z,78.81
2023-05-14T00:38:01.666Z,79.20
2023-05-14T00:39:01.808Z,79.00
2023-05-14T00:40:01.571Z,79.49
2023-05-14T00:41:01.815Z,79.49
2023-05-14T00:42:01.496Z,79.20
2023-05-14T00:43:01.445Z,79.10
2023-05-14T00:44:03.709Z,79.49
2023-05-14T00:45:01.487Z,79.29
2023-05-14T00:46:01.451Z,79.29
2023-05-14T00:47:01.333Z,79.87
2023-05-14T00:48:01.278Z,79.49
2023-05-14T00:49:01.198Z,79.29
2023-05-14T00:50:01.269Z,79.68
2023-05-14T00:51:01.141Z,79.77
2023-05-14T00:52:01.290Z,79.96
2023-05-14T00:53:01.023Z,80.06
2023-05-14T00:54:00.960Z,79.49
2023-05-14T00:55:01.119Z,80.06
2023-05-14T00:56:01.166Z,80.16
2023-05-14T00:57:02.149Z,80.06
2023-05-14T00:58:00.821Z,80.16
2023-05-14T00:59:01.546Z,80.35
2023-05-14T01:00:00.719Z,80.11
2023-05-14T01:01:02.192Z,80.06
2023-05-14T01:02:00.627Z,80.50
2023-05-14T01:03:00.848Z,80.40
2023-05-14T01:04:00.619Z,81.07
2023-05-14T01:05:00.482Z,80.69
2023-05-14T01:06:00.434Z,80.69
2023-05-14T01:07:00.782Z,80.79
2023-05-14T01:08:00.350Z,80.79
2023-05-14T01:09:00.606Z,81.07
2023-05-14T01:10:00.262Z,81.45
2023-05-14T01:11:01.478Z,81.26
2023-05-14T01:12:00.414Z,81.65
2023-05-14T01:13:00.152Z,81.55
2023-05-14T01:14:02.271Z,81.74
2023-05-14T01:15:00.040Z,81.93
2023-05-14T01:16:02.371Z,81.93
2023-05-14T01:16:59.983Z,82.22
2023-05-14T01:18:02.158Z,82.70
2023-05-14T01:18:59.947Z,82.60
2023-05-14T01:20:00.057Z,82.60
2023-05-14T01:20:59.807Z,82.31
2023-05-14T01:21:59.746Z,82.28
2023-05-14T01:23:01.995Z,82.70
2023-05-14T01:23:59.657Z,83.27
2023-05-14T01:24:59.953Z,83.17
2023-05-14T01:25:59.599Z,82.79
2023-05-14T01:27:00.926Z,83.08
2023-05-14T01:27:59.484Z,83.17
2023-05-14T01:28:59.711Z,83.17
2023-05-14T01:29:59.444Z,82.98
2023-05-14T01:31:01.576Z,82.70
2023-05-14T01:31:59.340Z,82.12
2023-05-14T01:32:59.386Z,82.60
2023-05-14T01:33:59.249Z,82.31
2023-05-14T01:35:01.423Z,82.51
2023-05-14T01:35:59.193Z,82.79
2023-05-14T01:37:00.402Z,82.98
2023-05-14T01:37:59.054Z,82.12
2023-05-14T01:38:59.218Z,82.89
2023-05-14T01:40:00.157Z,83.37
2023-05-14T01:40:58.909Z,82.89
2023-05-14T01:41:58.993Z,83.08
2023-05-14T01:42:58.897Z,83.17
2023-05-14T01:43:58.791Z,83.08
2023-05-14T01:44:58.726Z,83.27
2023-05-14T01:45:58.845Z,82.41
2023-05-14T01:46:58.676Z,82.60
2023-05-14T01:48:20.946Z,82.79
2023-05-14T01:48:58.631Z,83.17
2023-05-14T01:49:58.596Z,82.89
2023-05-14T01:50:58.472Z,83.37
2023-05-14T01:51:59.671Z,82.79
2023-05-14T01:52:58.399Z,82.41
2023-05-14T01:53:58.681Z,82.31
2023-05-14T01:54:58.288Z,81.74
2023-05-14T01:55:58.248Z,82.31
2023-05-14T01:57:00.232Z,81.84
2023-05-14T01:57:58.160Z,82.22
2023-05-14T01:58:58.284Z,82.60
2023-05-14T01:59:58.346Z,82.03
2023-05-14T02:00:58.075Z,81.93
2023-05-14T02:01:58.083Z,81.84
2023-05-14T02:02:58.077Z,81.93
2023-05-14T02:03:57.912Z,82.31
2023-05-14T02:04:59.250Z,82.89
2023-05-14T02:05:57.811Z,82.31
2023-05-14T02:06:57.765Z,82.89
2023-05-14T02:07:57.847Z,83.08
2023-05-14T02:08:57.677Z,82.31
2023-05-14T02:09:58.735Z,82.89
2023-05-14T02:10:57.603Z,82.98
2023-05-14T02:11:57.736Z,83.37
2023-05-14T02:12:57.833Z,83.37
2023-05-14T02:13:57.694Z,83.46
2023-05-14T02:14:57.428Z,83.27
2023-05-14T02:15:58.464Z,82.98
2023-05-14T02:16:57.340Z,83.37
2023-05-14T02:17:57.387Z,83.08
2023-05-14T02:18:57.329Z,82.79
2023-05-14T02:19:57.425Z,82.98
2023-05-14T02:20:57.251Z,83.17
2023-05-14T02:22:00.919Z,82.89
2023-05-14T02:22:57.070Z,82.79
2023-05-14T02:23:57.031Z,82.79
2023-05-14T02:24:58.079Z,82.60
2023-05-14T02:25:56.941Z,82.70
2023-05-14T02:26:57.169Z,82.60
2023-05-14T02:27:56.863Z,82.98
2023-05-14T02:28:56.860Z,82.89
2023-05-14T02:29:56.768Z,82.70
2023-05-14T02:30:58.967Z,83.27
2023-05-14T02:31:58.027Z,82.89
2023-05-14T02:32:56.741Z,83.17
2023-05-14T02:33:56.588Z,82.98
2023-05-14T02:34:56.549Z,82.89
2023-05-14T02:35:56.538Z,82.60
2023-05-14T02:36:57.749Z,82.79
2023-05-14T02:37:56.419Z,83.17
2023-05-14T02:38:58.789Z,82.60
2023-05-14T02:39:56.378Z,83.08
2023-05-14T02:40:56.286Z,82.98
2023-05-14T02:41:56.366Z,82.60
2023-05-14T02:42:56.199Z,82.89
2023-05-14T02:43:56.366Z,82.79
2023-05-14T02:44:56.164Z,82.98
2023-05-14T02:45:56.062Z,82.89
2023-05-14T02:46:56.291Z,82.79
2023-05-14T02:47:58.066Z,82.70
2023-05-14T02:48:55.941Z,83.56
2023-05-14T02:49:56.019Z,83.37
2023-05-14T02:50:55.927Z,83.37
2023-05-14T02:51:55.800Z,83.46
2023-05-14T02:52:55.779Z,83.46
2023-05-14T02:53:56.864Z,83.46
2023-05-14T02:54:55.687Z,83.75
2023-05-14T02:55:56.671Z,83.65
2023-05-14T02:56:55.586Z,83.56
2023-05-14T02:57:55.707Z,84.32
2023-05-14T02:58:55.747Z,83.84
2023-05-14T02:59:56.488Z,84.13
2023-05-14T03:00:55.436Z,84.23
2023-05-14T03:01:55.552Z,84.13
2023-05-14T03:02:55.573Z,83.94
2023-05-14T03:03:55.274Z,84.13
2023-05-14T03:04:55.507Z,84.03
2023-05-14T03:05:55.199Z,84.23
2023-05-14T03:06:55.312Z,84.80
2023-05-14T03:07:55.153Z,84.89
2023-05-14T03:08:55.059Z,84.89
2023-05-14T03:09:55.139Z,84.80
2023-05-14T03:10:55.190Z,85.18
2023-05-14T03:11:55.141Z,85.66
2023-05-14T03:12:54.957Z,86.04
2023-05-14T03:13:54.841Z,86.23
2023-05-14T03:14:54.820Z,86.14
2023-05-14T03:15:55.165Z,86.04
2023-05-14T03:16:54.768Z,86.14
2023-05-14T03:17:54.804Z,85.85
2023-05-14T03:18:54.751Z,85.71
2023-05-14T03:19:54.576Z,86.67
2023-05-14T03:20:55.645Z,86.67
2023-05-14T03:21:54.496Z,87.24
2023-05-14T03:22:55.836Z,86.86
2023-05-14T03:23:54.411Z,86.96
2023-05-14T03:24:54.430Z,86.76
2023-05-14T03:25:54.315Z,86.47
2023-05-14T03:26:55.458Z,86.47
2023-05-14T03:27:54.243Z,86.96
2023-05-14T03:28:54.243Z,87.15
2023-05-14T03:29:54.154Z,87.24
2023-05-14T03:30:54.140Z,87.57
2023-05-14T03:31:54.270Z,87.43
2023-05-14T03:32:54.046Z,87.34
2023-05-14T03:33:54.076Z,87.24
2023-05-14T03:34:53.956Z,87.24
2023-05-14T03:35:54.093Z,87.24
2023-05-14T03:36:53.826Z,88.01
2023-05-14T03:37:55.959Z,88.01
2023-05-14T03:38:53.743Z,88.10
2023-05-14T03:39:54.955Z,88.77
2023-05-14T03:40:53.808Z,88.96
2023-05-14T03:41:53.678Z,88.29
2023-05-14T03:42:53.644Z,88.77
2023-05-14T03:43:53.775Z,88.48
2023-05-14T03:44:53.478Z,89.44
2023-05-14T03:45:55.613Z,89.39
2023-05-14T03:46:53.433Z,89.82
2023-05-14T03:47:53.528Z,89.59
2023-05-14T03:48:53.361Z,89.59
2023-05-14T03:49:53.450Z,90.54
2023-05-14T03:50:53.211Z,89.97
2023-05-14T03:51:53.591Z,90.45
2023-05-14T03:52:53.143Z,90.45
2023-05-14T03:53:53.204Z,90.64
2023-05-14T03:54:53.036Z,90.64
2023-05-14T03:55:53.218Z,90.92
2023-05-14T03:56:52.946Z,91.50
2023-05-14T03:57:54.056Z,91.78
2023-05-14T03:58:54.271Z,91.78
2023-05-14T03:59:52.813Z,92.26
2023-05-14T04:00:53.869Z,92.07
2023-05-14T04:01:52.724Z,92.55
2023-05-14T04:02:52.963Z,92.55
2023-05-14T04:03:52.740Z,93.12
2023-05-14T04:04:53.804Z,93.02
2023-05-14T04:05:52.553Z,93.02
2023-05-14T04:06:52.682Z,92.93
2023-05-14T04:07:52.533Z,92.83
2023-05-14T04:08:52.493Z,93.21
2023-05-14T04:09:52.394Z,93.41
2023-05-14T04:10:53.532Z,93.50
2023-05-14T04:11:52.292Z,93.12
2023-05-14T04:12:52.330Z,93.41
2023-05-14T04:13:52.193Z,93.60
2023-05-14T04:14:52.503Z,93.02
2023-05-14T04:16:15.501Z,92.83
2023-05-14T04:16:52.058Z,93.12
2023-05-14T04:17:52.175Z,92.83
2023-05-14T04:18:51.987Z,92.64
2023-05-14T04:19:52.164Z,93.41
2023-05-14T04:20:51.888Z,93.31
2023-05-14T04:21:51.927Z,93.16
2023-05-14T04:22:53.011Z,92.83
2023-05-14T04:23:51.772Z,92.55
2023-05-14T04:24:52.819Z,92.21
2023-05-14T04:25:51.664Z,93.12
2023-05-14T04:26:51.625Z,93.26
2023-05-14T04:27:51.600Z,92.83
2023-05-14T04:28:51.642Z,93.02
2023-05-14T04:29:51.502Z,92.97
2023-05-14T04:30:54.905Z,92.16
2023-05-14T04:31:51.570Z,92.50
2023-05-14T04:32:51.407Z,92.55
2023-05-14T04:33:51.322Z,92.83
2023-05-14T04:34:52.502Z,92.93
2023-05-14T04:35:51.219Z,93.12
2023-05-14T04:36:51.475Z,92.74
2023-05-14T04:37:51.136Z,93.41
2023-05-14T04:38:51.275Z,93.02
2023-05-14T04:39:51.042Z,93.41
2023-05-14T04:40:51.107Z,93.50
2023-05-14T04:41:50.960Z,93.21
2023-05-14T04:42:52.291Z,93.12
2023-05-14T04:43:50.866Z,92.83
2023-05-14T04:44:50.907Z,92.97
2023-05-14T04:45:50.816Z,92.97
2023-05-14T04:46:50.934Z,92.59
2023-05-14T04:47:50.724Z,92.30
2023-05-14T04:48:51.786Z,92.21
2023-05-14T04:49:50.621Z,91.93
2023-05-14T04:50:50.958Z,91.83
2023-05-14T04:51:50.522Z,91.45
2023-05-14T04:52:50.566Z,91.25
2023-05-14T04:53:50.479Z,91.25
2023-05-14T04:54:50.474Z,90.88
2023-05-14T04:55:50.436Z,90.68
2023-05-14T04:56:51.445Z,90.49
2023-05-14T04:57:50.249Z,90.49
2023-05-14T04:58:50.401Z,90.88
2023-05-14T04:59:50.158Z,90.88
2023-05-14T05:00:50.121Z,90.88
2023-05-14T05:01:50.076Z,90.49
2023-05-14T05:02:50.269Z,90.34
2023-05-14T05:03:50.058Z,90.63
2023-05-14T05:04:52.289Z,90.06
2023-05-14T05:05:49.899Z,89.67
2023-05-14T05:06:50.059Z,89.48
2023-05-14T05:07:49.808Z,89.20
2023-05-14T05:08:49.869Z,88.91
2023-05-14T05:09:49.737Z,88.24
2023-05-14T05:10:49.723Z,88.53
2023-05-14T05:11:49.644Z,88.15
2023-05-14T05:12:51.841Z,87.86
2023-05-14T05:13:50.731Z,87.66
2023-05-14T05:14:49.521Z,87.76
2023-05-14T05:15:49.731Z,87.62
2023-05-14T05:16:49.422Z,87.29
2023-05-14T05:17:49.388Z,87.23
2023-05-14T05:18:49.785Z,86.85
2023-05-14T05:19:49.291Z,86.76
2023-05-14T05:20:49.360Z,86.85
2023-05-14T05:21:49.227Z,85.80
2023-05-14T05:22:49.157Z,85.51
2023-05-14T05:23:49.125Z,84.84
2023-05-14T05:24:50.059Z,84.17
2023-05-14T05:25:50.302Z,82.74
2023-05-14T05:26:51.231Z,83.31
2023-05-14T05:27:48.971Z,83.03
2023-05-14T05:28:50.056Z,83.22
2023-05-14T05:29:48.902Z,83.03
2023-05-14T05:30:49.004Z,83.22
2023-05-14T05:31:48.817Z,83.16
2023-05-14T05:32:48.864Z,83.45
2023-05-14T05:33:48.683Z,82.78
2023-05-14T05:34:48.660Z,82.68
2023-05-14T05:35:48.836Z,82.68
2023-05-14T05:36:48.554Z,82.87
2023-05-14T05:37:49.680Z,81.92
2023-05-14T05:38:48.470Z,81.25
2023-05-14T05:39:48.710Z,80.77
2023-05-14T05:40:48.380Z,80.58
2023-05-14T05:41:48.470Z,80.77
2023-05-14T05:42:48.298Z,80.29
2023-05-14T05:43:48.485Z,80.52
2023-05-14T05:44:48.226Z,79.66
2023-05-14T05:45:48.196Z,79.57
2023-05-14T05:46:48.189Z,80.24
2023-05-14T05:47:50.707Z,79.57
2023-05-14T05:48:48.061Z,79.28
2023-05-14T05:49:48.059Z,79.28
2023-05-14T05:50:47.950Z,78.99
2023-05-14T05:51:48.136Z,79.08
2023-05-14T05:52:47.881Z,78.64
2023-05-14T05:53:50.220Z,78.84
2023-05-14T05:54:47.806Z,78.93
2023-05-14T05:55:47.963Z,78.17
2023-05-14T05:56:47.961Z,77.78
2023-05-14T05:57:47.654Z,77.88
2023-05-14T05:58:48.796Z,77.69
2023-05-14T05:59:47.626Z,77.11
2023-05-14T06:03:48.961Z,75.81
2023-05-14T06:04:47.412Z,74.95
2023-05-14T06:05:47.460Z,75.52
2023-05-14T06:06:47.296Z,74.95
2023-05-14T06:07:47.290Z,74.57
2023-05-14T06:08:47.214Z,74.66
2023-05-14T06:09:47.456Z,74.37
2023-05-14T06:10:47.686Z,73.80
2023-05-14T06:11:49.310Z,73.90
2023-05-14T06:12:47.044Z,73.74
2023-05-14T06:13:47.155Z,73.65
2023-05-14T06:14:47.008Z,73.65
2023-05-14T06:15:47.086Z,72.78
2023-05-14T06:16:46.919Z,72.88
2023-05-14T06:17:47.216Z,72.97
2023-05-14T06:18:46.837Z,72.30
2023-05-14T06:19:47.106Z,72.30
2023-05-14T06:20:46.716Z,72.59
2023-05-14T06:21:46.928Z,72.68
2023-05-14T06:22:46.613Z,72.68
2023-05-14T06:23:46.733Z,72.59
2023-05-14T06:25:09.671Z,72.72
2023-05-14T06:25:46.944Z,72.91
2023-05-14T06:26:47.571Z,72.33
2023-05-14T06:27:46.425Z,71.57
2023-05-14T06:28:47.792Z,71.28
2023-05-14T06:29:46.388Z,72.08
2023-05-14T06:30:46.283Z,71.98
2023-05-14T06:32:07.497Z,71.41
2023-05-14T06:32:46.246Z,70.93
2023-05-14T06:33:47.418Z,70.64
2023-05-14T06:34:46.252Z,70.64
2023-05-14T06:35:46.081Z,69.68
2023-05-14T06:36:46.031Z,70.17
2023-05-14T06:37:47.254Z,69.97
2023-05-14T06:38:45.945Z,69.30
2023-05-14T06:39:46.164Z,69.30
2023-05-14T06:40:45.867Z,68.85
2023-05-14T06:41:45.816Z,68.76
2023-05-14T06:42:45.784Z,68.85
2023-05-14T06:43:45.851Z,68.66
2023-05-14T06:44:45.791Z,68.76
2023-05-14T06:45:46.069Z,68.28
2023-05-14T06:46:45.631Z,68.37
2023-05-14T06:47:45.603Z,68.18
2023-05-14T06:48:45.548Z,67.74
2023-05-14T06:49:47.739Z,67.93
2023-05-14T06:50:45.460Z,67.64
2023-05-14T06:51:46.523Z,67.25
2023-05-14T06:52:45.369Z,67.07
2023-05-14T06:53:45.323Z,66.91
2023-05-14T06:54:45.574Z,66.61
2023-05-14T06:55:46.356Z,65.94
2023-05-14T06:56:45.212Z,65.84
2023-05-14T06:57:46.370Z,65.94
2023-05-14T06:58:45.171Z,65.75
2023-05-14T06:59:45.087Z,65.66
2023-05-14T07:00:45.066Z,65.56
2023-05-14T07:02:07.287Z,65.17
2023-05-14T07:02:45.079Z,65.30
2023-05-14T07:03:44.924Z,65.30
2023-05-14T07:04:45.016Z,64.53
2023-05-14T07:05:44.986Z,63.70
2023-05-14T07:06:44.823Z,63.22
2023-05-14T07:07:45.002Z,62.64
2023-05-14T07:08:44.852Z,62.54
2023-05-14T07:09:44.817Z,61.68
2023-05-14T07:10:44.647Z,61.19
2023-05-14T07:11:44.597Z,61.29
2023-05-14T07:12:44.837Z,60.97
2023-05-14T07:13:44.686Z,61.26
2023-05-14T07:14:44.648Z,61.74
2023-05-14T07:15:44.468Z,62.51
2023-05-14T07:16:46.533Z,62.32
2023-05-14T07:17:46.542Z,62.19
2023-05-14T07:18:44.590Z,62.96
2023-05-14T07:19:44.480Z,62.87
2023-05-14T07:20:44.302Z,63.25
2023-05-14T07:21:44.495Z,62.84
2023-05-14T07:22:44.169Z,63.79
2023-05-14T07:23:44.118Z,63.70
2023-05-14T07:24:44.106Z,64.37
2023-05-14T07:25:46.156Z,64.28
2023-05-14T07:26:44.214Z,64.22
2023-05-14T07:27:44.131Z,64.40
2023-05-14T07:28:44.015Z,64.31
2023-05-14T07:29:43.895Z,63.83
2023-05-14T07:30:43.896Z,64.02
2023-05-14T07:31:45.147Z,63.95
2023-05-14T07:32:43.801Z,63.38
2023-05-14T07:33:44.992Z,62.83
2023-05-14T07:34:43.699Z,62.16
2023-05-14T07:35:43.652Z,62.54
2023-05-14T07:36:43.642Z,62.16
2023-05-14T07:37:43.791Z,61.49
2023-05-14T07:38:43.648Z,61.19
2023-05-14T07:39:43.607Z,60.72
2023-05-14T07:40:43.556Z,60.52
2023-05-14T07:41:43.397Z,60.42
2023-05-14T07:42:43.388Z,60.33
2023-05-14T07:43:43.424Z,60.30
2023-05-14T07:44:43.281Z,61.07
2023-05-14T07:45:43.443Z,61.26
2023-05-14T07:46:43.195Z,61.46
2023-05-14T07:47:43.385Z,61.94
2023-05-14T07:48:43.206Z,62.32
2023-05-14T07:49:49.414Z,62.10
2023-05-14T07:50:43.033Z,62.48
2023-05-14T07:51:43.277Z,62.38
2023-05-14T07:52:42.955Z,62.68
2023-05-14T07:53:43.091Z,63.45
2023-05-14T07:54:42.876Z,63.15
2023-05-14T07:55:44.140Z,63.15
2023-05-14T07:56:42.795Z,63.15
2023-05-14T07:57:42.918Z,63.18
2023-05-14T07:58:42.714Z,62.80
2023-05-14T07:59:42.977Z,62.61
2023-05-14T08:00:46.273Z,62.71
2023-05-14T08:01:42.785Z,62.41
2023-05-14T08:02:42.945Z,62.51
2023-05-14T08:03:42.810Z,62.61
2023-05-14T08:04:42.494Z,62.13
2023-05-14T08:05:42.780Z,62.51
2023-05-14T08:06:42.392Z,61.65
2023-05-14T08:07:42.477Z,62.32
2023-05-14T08:08:42.314Z,62.71
2023-05-14T08:09:42.492Z,62.13
2023-05-14T08:10:42.574Z,62.41
2023-05-14T08:11:44.359Z,62.71
2023-05-14T08:12:42.148Z,62.51
2023-05-14T08:14:03.437Z,62.23
2023-05-14T08:14:42.128Z,62.32
2023-05-14T08:15:42.333Z,62.13
2023-05-14T08:16:42.016Z,62.45
2023-05-14T08:17:41.994Z,62.16
2023-05-14T08:18:41.935Z,62.26
2023-05-14T08:19:43.804Z,61.19
2023-05-14T08:20:41.934Z,61.68
2023-05-14T08:21:42.180Z,61.00
2023-05-14T08:22:41.754Z,60.52
2023-05-14T08:23:41.734Z,60.62
2023-05-14T08:24:41.676Z,60.72
2023-05-14T08:25:41.796Z,59.94
2023-05-14T08:26:41.881Z,59.66
2023-05-14T08:27:41.809Z,59.69
2023-05-14T08:28:41.512Z,60.14
2023-05-14T08:29:41.476Z,59.97
2023-05-14T08:30:42.688Z,59.59
2023-05-14T08:31:41.623Z,59.69
2023-05-14T08:32:41.869Z,59.49
2023-05-14T08:33:41.314Z,59.75
2023-05-14T08:34:42.814Z,59.94
2023-05-14T08:35:41.247Z,59.94
2023-05-14T08:36:42.507Z,60.49
2023-05-14T08:37:41.179Z,61.07
2023-05-14T08:38:41.276Z,61.26
2023-05-14T08:39:41.083Z,61.74
2023-05-14T08:40:41.042Z,61.65
2023-05-14T08:41:40.997Z,62.13
2023-05-14T08:42:41.115Z,62.32
2023-05-14T08:43:43.211Z,62.45
2023-05-14T08:44:43.162Z,61.19
2023-05-14T08:45:40.836Z,61.19
2023-05-14T08:46:40.801Z,61.19
2023-05-14T08:47:40.978Z,60.94
2023-05-14T08:48:40.756Z,60.46
2023-05-14T08:49:43.204Z,59.97
2023-05-14T08:50:40.643Z,60.07
2023-05-14T08:51:40.598Z,59.49
2023-05-14T08:52:40.568Z,58.92
2023-05-14T08:53:41.796Z,59.14
2023-05-14T08:54:40.472Z,58.75
2023-05-14T08:55:41.619Z,58.85
2023-05-14T08:56:40.398Z,59.11
2023-05-14T08:57:40.358Z,59.30
2023-05-14T08:58:40.574Z,59.01
2023-05-14T08:59:41.478Z,58.85
2023-05-14T09:00:40.416Z,59.23
2023-05-14T09:01:40.241Z,59.23
2023-05-14T09:02:40.445Z,58.56
2023-05-14T09:03:40.197Z,58.20
2023-05-14T09:04:40.235Z,58.40
2023-05-14T09:05:40.052Z,57.43
2023-05-14T09:06:40.253Z,56.79
2023-05-14T09:07:40.308Z,56.21
2023-05-14T09:08:39.952Z,56.59
2023-05-14T09:09:39.881Z,56.62
2023-05-14T09:10:40.078Z,55.94
2023-05-14T09:11:40.130Z,55.76
2023-05-14T09:12:40.090Z,54.31
2023-05-14T09:13:39.748Z,54.02
2023-05-14T09:14:39.696Z,54.11
2023-05-14T09:15:39.906Z,54.02
2023-05-14T09:16:39.720Z,54.14
2023-05-14T09:17:40.758Z,53.34
2023-05-14T09:18:40.867Z,53.95
2023-05-14T09:19:39.530Z,53.56
2023-05-14T09:20:39.465Z,53.08
2023-05-14T09:21:40.468Z,52.50
2023-05-14T09:22:39.597Z,52.14
2023-05-14T09:23:41.602Z,52.14
2023-05-14T09:24:39.323Z,52.77
2023-05-14T09:25:39.274Z,52.02
2023-05-14T09:26:39.253Z,51.06
2023-05-14T09:27:39.283Z,49.90
2023-05-14T09:28:39.176Z,49.24
2023-05-14T09:29:39.196Z,49.24
2023-05-14T09:31:00.117Z,48.76
2023-05-14T09:31:39.093Z,48.18
2023-05-14T09:32:40.188Z,48.59
2023-05-14T09:33:39.061Z,48.59
2023-05-14T09:34:39.170Z,47.91
2023-05-14T09:35:40.242Z,47.84
2023-05-14T09:36:38.874Z,47.06
2023-05-14T09:37:38.844Z,46.77
2023-05-14T09:38:40.995Z,46.29
2023-05-14T09:39:38.791Z,45.49
2023-05-14T09:40:38.760Z,46.26
2023-05-14T09:41:38.831Z,46.84
2023-05-14T09:42:38.662Z,47.14
2023-05-14T09:43:38.814Z,46.67
2023-05-14T09:44:38.589Z,46.66
2023-05-14T09:45:38.590Z,45.59
2023-05-14T09:46:38.521Z,46.36
2023-05-14T09:47:40.785Z,46.09
2023-05-14T09:48:38.475Z,45.59
2023-05-14T09:49:38.622Z,45.71
2023-05-14T09:50:38.551Z,46.41
2023-05-14T09:51:38.431Z,44.83
2023-05-14T09:52:38.347Z,43.90
2023-05-14T09:53:38.261Z,42.11
2023-05-14T09:54:38.232Z,38.83
2023-05-14T09:55:38.265Z,38.07
2023-05-14T09:56:38.519Z,37.91
2023-05-14T09:57:38.266Z,37.70
2023-05-14T09:58:38.096Z,38.09
2023-05-14T09:59:38.065Z,37.58
2023-05-14T10:00:38.096Z,37.60
2023-05-14T10:01:38.095Z,37.81
2023-05-14T10:02:38.291Z,36.78
2023-05-14T10:03:37.928Z,35.64
2023-05-14T10:04:37.936Z,34.77
2023-05-14T10:05:37.880Z,33.89
2023-05-14T10:06:37.932Z,33.87
2023-05-14T10:07:37.812Z,34.92
2023-05-14T10:08:37.788Z,35.28
2023-05-14T10:09:37.945Z,35.63
2023-05-14T10:10:37.709Z,36.94
2023-05-14T10:11:41.035Z,37.43
2023-05-14T10:12:37.640Z,38.11
2023-05-14T10:13:38.851Z,38.89
2023-05-14T10:14:37.575Z,38.77
2023-05-14T10:15:37.784Z,38.83
2023-05-14T10:16:37.584Z,39.90
2023-05-14T10:17:37.638Z,40.29
2023-05-14T10:18:37.491Z,40.75
2023-05-14T10:19:38.426Z,41.80
2023-05-14T10:20:37.471Z,42.29
2023-05-14T10:21:37.362Z,42.57
2023-05-14T10:22:37.313Z,42.48
2023-05-14T10:23:37.447Z,42.40
2023-05-14T10:24:37.235Z,42.40
2023-05-14T10:25:37.249Z,42.11
2023-05-14T10:26:37.310Z,42.40
2023-05-14T10:27:37.125Z,42.11
2023-05-14T10:28:38.290Z,41.94
2023-05-14T10:29:37.058Z,41.55
2023-05-14T10:30:37.088Z,41.06
2023-05-14T10:31:37.094Z,41.55
2023-05-14T10:32:37.185Z,41.05
2023-05-14T10:33:36.914Z,41.14
2023-05-14T10:34:37.107Z,41.33
2023-05-14T10:35:36.845Z,41.70
2023-05-14T10:36:38.148Z,41.97
2023-05-14T10:37:36.788Z,42.72
2023-05-14T10:38:36.741Z,43.02
2023-05-14T10:39:37.966Z,43.77
2023-05-14T10:40:36.726Z,44.04
2023-05-14T10:41:38.794Z,44.89
2023-05-14T10:42:36.677Z,46.15
2023-05-14T10:43:36.762Z,47.09
2023-05-14T10:44:36.529Z,48.61
2023-05-14T10:45:36.978Z,49.85
2023-05-14T10:46:36.483Z,51.17
2023-05-14T10:47:36.671Z,53.20
2023-05-14T10:48:36.376Z,52.69
2023-05-14T10:49:43.355Z,54.31
2023-05-14T10:50:37.429Z,55.85
2023-05-14T10:51:36.361Z,57.65
2023-05-14T10:52:57.316Z,58.01
2023-05-14T10:53:36.192Z,59.75
2023-05-14T10:54:36.238Z,59.91
2023-05-14T10:55:36.105Z,60.77
2023-05-14T10:56:58.363Z,61.25
2023-05-14T10:57:36.040Z,60.39
2023-05-14T10:58:36.053Z,60.00
2023-05-14T10:59:35.968Z,59.72
2023-05-14T11:00:35.917Z,59.04
2023-05-14T11:01:35.911Z,59.52
2023-05-14T11:02:35.935Z,59.94
2023-05-14T11:03:35.998Z,59.45
2023-05-14T11:04:35.895Z,58.88
2023-05-14T11:05:35.950Z,59.17
2023-05-14T11:06:35.684Z,59.17
2023-05-14T11:07:35.646Z,58.72
2023-05-14T11:08:35.754Z,57.75
2023-05-14T11:09:35.564Z,57.65
2023-05-14T11:10:36.807Z,56.69
2023-05-14T11:11:35.523Z,56.69
2023-05-14T11:12:35.455Z,56.79
2023-05-14T11:13:35.555Z,56.79
2023-05-14T11:14:35.377Z,56.21
2023-05-14T11:15:36.459Z,55.85
2023-05-14T11:16:35.396Z,56.14
2023-05-14T11:17:36.514Z,55.88
2023-05-14T11:18:35.239Z,54.50
2023-05-14T11:19:35.392Z,55.01
2023-05-14T11:20:35.146Z,54.72
2023-05-14T11:21:35.250Z,54.94
2023-05-14T11:22:35.078Z,54.46
2023-05-14T11:23:35.086Z,53.81
2023-05-14T11:24:36.043Z,53.13
2023-05-14T11:25:34.959Z,53.74
2023-05-14T11:26:35.074Z,52.70
2023-05-14T11:27:34.884Z,52.05
2023-05-14T11:28:35.076Z,50.52
2023-05-14T11:29:43.930Z,50.16
2023-05-14T11:30:34.864Z,49.87
2023-05-14T11:31:34.765Z,49.87
2023-05-14T11:32:34.903Z,48.93
2023-05-14T11:33:34.657Z,47.98
2023-05-14T11:34:34.631Z,46.72
2023-05-14T11:35:35.725Z,46.33
2023-05-14T11:36:34.569Z,46.16
2023-05-14T11:37:35.758Z,46.48
2023-05-14T11:38:34.767Z,45.72
2023-05-14T11:39:35.544Z,44.31
2023-05-14T11:40:34.406Z,42.99
2023-05-14T11:41:35.563Z,41.57
2023-05-14T11:42:34.333Z,40.23
2023-05-14T11:43:34.554Z,38.89
2023-05-14T11:44:34.450Z,38.61
2023-05-14T11:45:34.245Z,37.85
2023-05-14T11:46:34.336Z,36.99
2023-05-14T11:47:35.480Z,36.51
2023-05-14T11:48:34.133Z,36.13
2023-05-14T11:49:36.229Z,36.72
2023-05-14T11:50:34.243Z,36.31
2023-05-14T11:51:34.036Z,36.88
2023-05-14T11:52:34.012Z,37.62
2023-05-14T11:53:34.211Z,39.06
2023-05-14T11:54:33.948Z,39.18
2023-05-14T11:55:34.022Z,40.31
2023-05-14T11:56:35.108Z,43.64
2023-05-14T11:57:34.035Z,48.83
2023-05-14T11:58:33.794Z,51.50
2023-05-14T11:59:33.856Z,53.28
2023-05-14T12:00:33.729Z,56.15
2023-05-14T12:01:33.872Z,56.87
2023-05-14T12:02:33.693Z,57.29
2023-05-14T12:03:33.766Z,59.61
2023-05-14T12:04:33.652Z,60.64
2023-05-14T12:05:33.683Z,61.29
2023-05-14T12:06:34.766Z,63.50
2023-05-14T12:07:33.696Z,64.15
2023-05-14T12:08:33.431Z,66.17
2023-05-14T12:09:34.527Z,65.75
2023-05-14T12:10:33.347Z,66.58
2023-05-14T12:11:33.527Z,67.26
2023-05-14T12:12:33.302Z,69.15
2023-05-14T12:13:33.228Z,69.12
2023-05-14T12:14:33.198Z,70.56
2023-05-14T12:15:33.344Z,72.54
2023-05-14T12:16:33.931Z,73.50
2023-05-14T12:17:34.412Z,75.71
2023-05-14T12:18:33.205Z,77.53
2023-05-14T12:19:32.997Z,79.27
2023-05-14T12:20:33.189Z,80.04
2023-05-14T12:21:32.920Z,78.94
2023-05-14T12:22:34.218Z,79.17
2023-05-14T12:23:32.825Z,79.42
2023-05-14T12:24:34.038Z,79.90
2023-05-14T12:25:32.756Z,81.24
2023-05-14T12:26:32.814Z,82.49
2023-05-14T12:27:32.679Z,82.78
2023-05-14T12:28:34.212Z,83.30
2023-05-14T12:29:32.592Z,83.64
2023-05-14T12:30:32.545Z,82.87
2023-05-14T12:31:32.515Z,82.53
2023-05-14T12:32:33.706Z,80.57
2023-05-14T12:33:32.485Z,79.32
2023-05-14T12:34:32.463Z,79.52
2023-05-14T12:35:32.342Z,79.22
2023-05-14T12:36:32.303Z,80.09
2023-05-14T12:37:33.512Z,82.59
2023-05-14T12:38:32.227Z,83.07
2023-05-14T12:39:32.222Z,83.74
2023-05-14T12:40:32.302Z,85.08
2023-05-14T12:41:32.107Z,84.12
2023-05-14T12:42:32.317Z,83.64
2023-05-14T12:43:32.017Z,85.24
2023-05-14T12:44:32.125Z,87.29
2023-05-14T12:45:37.303Z,89.17
2023-05-14T12:46:32.172Z,89.07
2023-05-14T12:47:32.001Z,89.07
2023-05-14T12:48:31.808Z,89.22
2023-05-14T12:49:31.956Z,88.98
2023-05-14T12:50:31.737Z,88.98
2023-05-14T12:51:33.830Z,90.22
2023-05-14T12:53:31.617Z,89.26
2023-05-14T12:54:31.789Z,90.27
2023-05-14T12:55:31.522Z,90.94